sensor_id;sensor_type;location;lat;lon;timestamp;pressure;altitude;pressure_sealevel;temperature
35582;BMP180;21687;48.900;9.188;2023-05-07T00:01:20;98363.00;;;12.40
35582;BMP180;21687;48.900;9.188;2023-05-07T00:03:46;98379.00;;;12.50
35582;BMP180;21687;48.900;9.188;2023-05-07T00:06:12;98369.00;;;12.50
35582;BMP180;21687;48.900;9.188;2023-05-07T00:08:39;98362.00;;;12.60
35582;BMP180;21687;48.900;9.188;2023-05-07T00:11:05;98364.00;;;12.70
35582;BMP180;21687;48.900;9.188;2023-05-07T00:13:31;98361.00;;;12.70
35582;BMP180;21687;48.900;9.188;2023-05-07T00:16:02;98369.00;;;12.60
35582;BMP180;21687;48.900;9.188;2023-05-07T00:18:28;98373.00;;;12.60
35582;BMP180;21687;48.900;9.188;2023-05-07T00:20:55;98365.00;;;12.60
35582;BMP180;21687;48.900;9.188;2023-05-07T00:23:22;98365.00;;;12.70
35582;BMP180;21687;48.900;9.188;2023-05-07T00:25:48;98361.00;;;12.70
35582;BMP180;21687;48.900;9.188;2023-05-07T00:28:14;98353.00;;;12.70
35582;BMP180;21687;48.900;9.188;2023-05-07T00:30:41;98358.00;;;12.80
35582;BMP180;21687;48.900;9.188;2023-05-07T00:33:07;98355.00;;;12.70
35582;BMP180;21687;48.900;9.188;2023-05-07T00:35:33;98341.00;;;12.60
35582;BMP180;21687;48.900;9.188;2023-05-07T00:37:59;98344.00;;;12.50
35582;BMP180;21687;48.900;9.188;2023-05-07T00:40:26;98338.00;;;12.50
35582;BMP180;21687;48.900;9.188;2023-05-07T00:42:52;98338.00;;;12.30
35582;BMP180;21687;48.900;9.188;2023-05-07T00:45:26;98339.00;;;12.30
35582;BMP180;21687;48.900;9.188;2023-05-07T00:47:58;98341.00;;;12.20
35582;BMP180;21687;48.900;9.188;2023-05-07T00:50:26;98334.00;;;12.10
35582;BMP180;21687;48.900;9.188;2023-05-07T00:52:53;98335.00;;;12.00
35582;BMP180;21687;48.900;9.188;2023-05-07T00:55:20;98337.00;;;11.90
35582;BMP180;21687;48.900;9.188;2023-05-07T00:57:46;98339.00;;;11.90
35582;BMP180;21687;48.900;9.188;2023-05-07T01:00:14;98338.00;;;11.80
35582;BMP180;21687;48.900;9.188;2023-05-07T01:02:41;98335.00;;;11.80
35582;BMP180;21687;48.900;9.188;2023-05-07T01:05:18;98324.00;;;11.70
35582;BMP180;21687;48.900;9.188;2023-05-07T01:07:45;98345.00;;;11.60
35582;BMP180;21687;48.900;9.188;2023-05-07T01:10:12;98339.00;;;11.50
35582;BMP180;21687;48.900;9.188;2023-05-07T01:12:40;98342.00;;;11.50
35582;BMP180;21687;48.900;9.188;2023-05-07T01:15:08;98347.00;;;11.40
35582;BMP180;21687;48.900;9.188;2023-05-07T01:17:36;98336.00;;;11.40
35582;BMP180;21687;48.900;9.188;2023-05-07T01:20:06;98339.00;;;11.50
35582;BMP180;21687;48.900;9.188;2023-05-07T01:22:34;98334.00;;;11.40
35582;BMP180;21687;48.900;9.188;2023-05-07T01:25:01;98330.00;;;11.40
35582;BMP180;21687;48.900;9.188;2023-05-07T01:27:28;98340.00;;;11.40
35582;BMP180;21687;48.900;9.188;2023-05-07T01:29:54;98336.00;;;11.30
35582;BMP180;21687;48.900;9.188;2023-05-07T01:32:40;98338.00;;;11.30
35582;BMP180;21687;48.900;9.188;2023-05-07T01:35:11;98336.00;;;11.20
35582;BMP180;21687;48.900;9.188;2023-05-07T01:37:38;98331.00;;;11.20
35582;BMP180;21687;48.900;9.188;2023-05-07T01:40:05;98338.00;;;11.30
35582;BMP180;21687;48.900;9.188;2023-05-07T01:42:33;98338.00;;;11.30
35582;BMP180;21687;48.900;9.188;2023-05-07T01:44:59;98319.00;;;11.40
35582;BMP180;21687;48.900;9.188;2023-05-07T01:47:26;98332.00;;;11.40
35582;BMP180;21687;48.900;9.188;2023-05-07T01:49:52;98333.00;;;11.40
35582;BMP180;21687;48.900;9.188;2023-05-07T01:52:19;98324.00;;;11.40
35582;BMP180;21687;48.900;9.188;2023-05-07T01:54:45;98316.00;;;11.50
35582;BMP180;21687;48.900;9.188;2023-05-07T01:57:11;98320.00;;;11.50
35582;BMP180;21687;48.900;9.188;2023-05-07T01:59:38;98311.00;;;11.50
35582;BMP180;21687;48.900;9.188;2023-05-07T02:02:04;98319.00;;;11.50
35582;BMP180;21687;48.900;9.188;2023-05-07T02:04:30;98332.00;;;11.40
35582;BMP180;21687;48.900;9.188;2023-05-07T02:06:57;98327.00;;;11.40
35582;BMP180;21687;48.900;9.188;2023-05-07T02:09:23;98334.00;;;11.40
35582;BMP180;21687;48.900;9.188;2023-05-07T02:11:50;98324.00;;;11.30
35582;BMP180;21687;48.900;9.188;2023-05-07T02:14:16;98328.00;;;11.30
35582;BMP180;21687;48.900;9.188;2023-05-07T02:16:42;98334.00;;;11.30
35582;BMP180;21687;48.900;9.188;2023-05-07T02:19:09;98334.00;;;11.20
35582;BMP180;21687;48.900;9.188;2023-05-07T02:21:35;98328.00;;;11.30
35582;BMP180;21687;48.900;9.188;2023-05-07T02:24:01;98328.00;;;11.30
35582;BMP180;21687;48.900;9.188;2023-05-07T02:26:27;98333.00;;;11.30
35582;BMP180;21687;48.900;9.188;2023-05-07T02:28:54;98341.00;;;11.30
35582;BMP180;21687;48.900;9.188;2023-05-07T02:31:20;98330.00;;;11.30
35582;BMP180;21687;48.900;9.188;2023-05-07T02:33:47;98326.00;;;11.20
35582;BMP180;21687;48.900;9.188;2023-05-07T02:36:13;98328.00;;;11.20
35582;BMP180;21687;48.900;9.188;2023-05-07T02:38:40;98325.00;;;11.20
35582;BMP180;21687;48.900;9.188;2023-05-07T02:41:06;98327.00;;;11.20
35582;BMP180;21687;48.900;9.188;2023-05-07T02:43:32;98327.00;;;11.20
35582;BMP180;21687;48.900;9.188;2023-05-07T02:46:08;98335.00;;;11.10
35582;BMP180;21687;48.900;9.188;2023-05-07T02:48:35;98334.00;;;11.00
35582;BMP180;21687;48.900;9.188;2023-05-07T02:51:01;98325.00;;;11.00
35582;BMP180;21687;48.900;9.188;2023-05-07T02:53:28;98316.00;;;11.00
35582;BMP180;21687;48.900;9.188;2023-05-07T02:55:59;98323.00;;;10.90
35582;BMP180;21687;48.900;9.188;2023-05-07T02:58:26;98310.00;;;10.80
35582;BMP180;21687;48.900;9.188;2023-05-07T03:00:52;98318.00;;;10.70
35582;BMP180;21687;48.900;9.188;2023-05-07T03:03:20;98315.00;;;10.60
35582;BMP180;21687;48.900;9.188;2023-05-07T03:05:47;98315.00;;;10.50
35582;BMP180;21687;48.900;9.188;2023-05-07T03:08:13;98308.00;;;10.50
35582;BMP180;21687;48.900;9.188;2023-05-07T03:10:40;98303.00;;;10.40
35582;BMP180;21687;48.900;9.188;2023-05-07T03:13:06;98301.00;;;10.40
35582;BMP180;21687;48.900;9.188;2023-05-07T03:15:32;98301.00;;;10.40
35582;BMP180;21687;48.900;9.188;2023-05-07T03:17:58;98304.00;;;10.40
35582;BMP180;21687;48.900;9.188;2023-05-07T03:20:25;98305.00;;;10.30
35582;BMP180;21687;48.900;9.188;2023-05-07T03:22:51;98307.00;;;10.30
35582;BMP180;21687;48.900;9.188;2023-05-07T03:25:17;98306.00;;;10.30
35582;BMP180;21687;48.900;9.188;2023-05-07T03:27:44;98311.00;;;10.20
35582;BMP180;21687;48.900;9.188;2023-05-07T03:30:10;98302.00;;;10.10
35582;BMP180;21687;48.900;9.188;2023-05-07T03:32:37;98300.00;;;10.10
35582;BMP180;21687;48.900;9.188;2023-05-07T03:35:03;98299.00;;;10.20
35582;BMP180;21687;48.900;9.188;2023-05-07T03:37:30;98297.00;;;10.20
35582;BMP180;21687;48.900;9.188;2023-05-07T03:39:56;98296.00;;;10.20
35582;BMP180;21687;48.900;9.188;2023-05-07T03:42:23;98299.00;;;10.10
35582;BMP180;21687;48.900;9.188;2023-05-07T03:44:49;98301.00;;;10.20
35582;BMP180;21687;48.900;9.188;2023-05-07T03:47:15;98293.00;;;10.20
35582;BMP180;21687;48.900;9.188;2023-05-07T03:49:41;98302.00;;;10.20
35582;BMP180;21687;48.900;9.188;2023-05-07T03:52:08;98305.00;;;10.10
35582;BMP180;21687;48.900;9.188;2023-05-07T03:54:34;98305.00;;;10.10
35582;BMP180;21687;48.900;9.188;2023-05-07T03:57:00;98294.00;;;10.10
35582;BMP180;21687;48.900;9.188;2023-05-07T03:59:27;98310.00;;;10.10
35582;BMP180;21687;48.900;9.188;2023-05-07T04:01:54;98310.00;;;10.30
35582;BMP180;21687;48.900;9.188;2023-05-07T04:04:20;98306.00;;;10.30
35582;BMP180;21687;48.900;9.188;2023-05-07T04:06:47;98313.00;;;10.30
35582;BMP180;21687;48.900;9.188;2023-05-07T04:09:13;98314.00;;;10.30
35582;BMP180;21687;48.900;9.188;2023-05-07T04:11:40;98310.00;;;10.30
35582;BMP180;21687;48.900;9.188;2023-05-07T04:14:06;98313.00;;;10.30
35582;BMP180;21687;48.900;9.188;2023-05-07T04:16:34;98314.00;;;10.30
35582;BMP180;21687;48.900;9.188;2023-05-07T04:19:00;98317.00;;;10.30
35582;BMP180;21687;48.900;9.188;2023-05-07T04:21:26;98322.00;;;10.40
35582;BMP180;21687;48.900;9.188;2023-05-07T04:23:53;98324.00;;;10.40
35582;BMP180;21687;48.900;9.188;2023-05-07T04:26:19;98318.00;;;10.50
35582;BMP180;21687;48.900;9.188;2023-05-07T04:28:47;98335.00;;;10.60
35582;BMP180;21687;48.900;9.188;2023-05-07T04:31:13;98332.00;;;10.70
35582;BMP180;21687;48.900;9.188;2023-05-07T04:33:39;98335.00;;;10.70
35582;BMP180;21687;48.900;9.188;2023-05-07T04:36:06;98326.00;;;10.90
35582;BMP180;21687;48.900;9.188;2023-05-07T04:38:32;98323.00;;;11.00
35582;BMP180;21687;48.900;9.188;2023-05-07T04:41:03;98336.00;;;11.10
35582;BMP180;21687;48.900;9.188;2023-05-07T04:43:31;98331.00;;;11.20
35582;BMP180;21687;48.900;9.188;2023-05-07T04:45:57;98338.00;;;11.30
35582;BMP180;21687;48.900;9.188;2023-05-07T04:48:23;98330.00;;;11.40
35582;BMP180;21687;48.900;9.188;2023-05-07T04:50:50;98334.00;;;11.60
35582;BMP180;21687;48.900;9.188;2023-05-07T04:53:17;98344.00;;;12.00
35582;BMP180;21687;48.900;9.188;2023-05-07T04:55:44;98335.00;;;12.40
35582;BMP180;21687;48.900;9.188;2023-05-07T04:58:11;98346.00;;;13.10
35582;BMP180;21687;48.900;9.188;2023-05-07T05:00:38;98349.00;;;13.60
35582;BMP180;21687;48.900;9.188;2023-05-07T05:03:08;98347.00;;;13.70
35582;BMP180;21687;48.900;9.188;2023-05-07T05:05:34;98354.00;;;13.80
35582;BMP180;21687;48.900;9.188;2023-05-07T05:08:01;98342.00;;;13.70
35582;BMP180;21687;48.900;9.188;2023-05-07T05:10:30;98351.00;;;13.50
35582;BMP180;21687;48.900;9.188;2023-05-07T05:13:00;98349.00;;;13.50
35582;BMP180;21687;48.900;9.188;2023-05-07T05:15:26;98362.00;;;13.40
35582;BMP180;21687;48.900;9.188;2023-05-07T05:17:52;98360.00;;;13.20
35582;BMP180;21687;48.900;9.188;2023-05-07T05:20:18;98359.00;;;13.20
35582;BMP180;21687;48.900;9.188;2023-05-07T05:22:45;98364.00;;;13.10
35582;BMP180;21687;48.900;9.188;2023-05-07T05:25:11;98370.00;;;13.00
35582;BMP180;21687;48.900;9.188;2023-05-07T05:27:37;98373.00;;;13.10
35582;BMP180;21687;48.900;9.188;2023-05-07T05:30:04;98378.00;;;13.10
35582;BMP180;21687;48.900;9.188;2023-05-07T05:32:31;98374.00;;;13.20
35582;BMP180;21687;48.900;9.188;2023-05-07T05:34:57;98364.00;;;13.30
35582;BMP180;21687;48.900;9.188;2023-05-07T05:37:24;98367.00;;;13.40
35582;BMP180;21687;48.900;9.188;2023-05-07T05:39:50;98366.00;;;13.50
35582;BMP180;21687;48.900;9.188;2023-05-07T05:42:17;98369.00;;;13.60
35582;BMP180;21687;48.900;9.188;2023-05-07T05:44:43;98358.00;;;13.80
35582;BMP180;21687;48.900;9.188;2023-05-07T05:47:09;98372.00;;;14.00
35582;BMP180;21687;48.900;9.188;2023-05-07T05:49:36;98374.00;;;14.00
35582;BMP180;21687;48.900;9.188;2023-05-07T05:52:02;98373.00;;;14.10
35582;BMP180;21687;48.900;9.188;2023-05-07T05:54:29;98379.00;;;14.30
35582;BMP180;21687;48.900;9.188;2023-05-07T05:56:55;98372.00;;;14.50
35582;BMP180;21687;48.900;9.188;2023-05-07T05:59:21;98369.00;;;14.70
35582;BMP180;21687;48.900;9.188;2023-05-07T06:01:48;98372.00;;;14.70
35582;BMP180;21687;48.900;9.188;2023-05-07T06:04:14;98377.00;;;14.70
35582;BMP180;21687;48.900;9.188;2023-05-07T06:06:40;98382.00;;;15.00
35582;BMP180;21687;48.900;9.188;2023-05-07T06:09:07;98390.00;;;15.20
35582;BMP180;21687;48.900;9.188;2023-05-07T06:11:33;98381.00;;;15.60
35582;BMP180;21687;48.900;9.188;2023-05-07T06:13:59;98378.00;;;16.10
35582;BMP180;21687;48.900;9.188;2023-05-07T06:16:26;98379.00;;;16.60
35582;BMP180;21687;48.900;9.188;2023-05-07T06:18:52;98381.00;;;17.20
35582;BMP180;21687;48.900;9.188;2023-05-07T06:21:18;98386.00;;;18.20
35582;BMP180;21687;48.900;9.188;2023-05-07T06:23:44;98394.00;;;18.80
35582;BMP180;21687;48.900;9.188;2023-05-07T06:26:11;98385.00;;;18.80
35582;BMP180;21687;48.900;9.188;2023-05-07T06:28:39;98381.00;;;18.20
35582;BMP180;21687;48.900;9.188;2023-05-07T06:31:17;98384.00;;;17.70
35582;BMP180;21687;48.900;9.188;2023-05-07T06:33:45;98398.00;;;17.60
35582;BMP180;21687;48.900;9.188;2023-05-07T06:36:11;98409.00;;;17.40
35582;BMP180;21687;48.900;9.188;2023-05-07T06:38:38;98408.00;;;17.30
35582;BMP180;21687;48.900;9.188;2023-05-07T06:41:05;98399.00;;;17.40
35582;BMP180;21687;48.900;9.188;2023-05-07T06:43:32;98394.00;;;17.90
35582;BMP180;21687;48.900;9.188;2023-05-07T06:45:58;98398.00;;;18.50
35582;BMP180;21687;48.900;9.188;2023-05-07T06:48:25;98402.00;;;18.80
35582;BMP180;21687;48.900;9.188;2023-05-07T06:50:51;98394.00;;;19.20
35582;BMP180;21687;48.900;9.188;2023-05-07T06:53:17;98391.00;;;19.60
35582;BMP180;21687;48.900;9.188;2023-05-07T06:55:43;98384.00;;;19.60
35582;BMP180;21687;48.900;9.188;2023-05-07T06:58:10;98387.00;;;19.70
35582;BMP180;21687;48.900;9.188;2023-05-07T07:00:36;98377.00;;;19.80
35582;BMP180;21687;48.900;9.188;2023-05-07T07:03:05;98384.00;;;19.80
35582;BMP180;21687;48.900;9.188;2023-05-07T07:05:31;98383.00;;;20.30
35582;BMP180;21687;48.900;9.188;2023-05-07T07:07:57;98388.00;;;20.70
35582;BMP180;21687;48.900;9.188;2023-05-07T07:10:24;98392.00;;;20.70
35582;BMP180;21687;48.900;9.188;2023-05-07T07:12:50;98389.00;;;20.90
35582;BMP180;21687;48.900;9.188;2023-05-07T07:15:19;98389.00;;;20.80
35582;BMP180;21687;48.900;9.188;2023-05-07T07:17:47;98392.00;;;21.30
35582;BMP180;21687;48.900;9.188;2023-05-07T07:20:14;98392.00;;;20.80
35582;BMP180;21687;48.900;9.188;2023-05-07T07:22:40;98388.00;;;21.10
35582;BMP180;21687;48.900;9.188;2023-05-07T07:25:06;98386.00;;;20.90
35582;BMP180;21687;48.900;9.188;2023-05-07T07:27:33;98390.00;;;20.70
35582;BMP180;21687;48.900;9.188;2023-05-07T07:29:59;98386.00;;;20.30
35582;BMP180;21687;48.900;9.188;2023-05-07T07:32:25;98388.00;;;20.30
35582;BMP180;21687;48.900;9.188;2023-05-07T07:34:52;98386.00;;;20.20
35582;BMP180;21687;48.900;9.188;2023-05-07T07:37:18;98389.00;;;20.00
35582;BMP180;21687;48.900;9.188;2023-05-07T07:39:44;98390.00;;;19.90
35582;BMP180;21687;48.900;9.188;2023-05-07T07:42:11;98394.00;;;20.20
35582;BMP180;21687;48.900;9.188;2023-05-07T07:44:37;98394.00;;;20.40
35582;BMP180;21687;48.900;9.188;2023-05-07T07:47:05;98400.00;;;19.90
35582;BMP180;21687;48.900;9.188;2023-05-07T07:49:31;98402.00;;;19.50
35582;BMP180;21687;48.900;9.188;2023-05-07T07:51:58;98405.00;;;19.20
35582;BMP180;21687;48.900;9.188;2023-05-07T07:54:25;98400.00;;;19.20
35582;BMP180;21687;48.900;9.188;2023-05-07T07:56:51;98405.00;;;19.10
35582;BMP180;21687;48.900;9.188;2023-05-07T07:59:18;98411.00;;;19.20
35582;BMP180;21687;48.900;9.188;2023-05-07T08:01:45;98406.00;;;18.80
35582;BMP180;21687;48.900;9.188;2023-05-07T08:04:11;98411.00;;;19.00
35582;BMP180;21687;48.900;9.188;2023-05-07T08:06:41;98408.00;;;18.90
35582;BMP180;21687;48.900;9.188;2023-05-07T08:09:08;98408.00;;;18.90
35582;BMP180;21687;48.900;9.188;2023-05-07T08:11:35;98415.00;;;19.00
35582;BMP180;21687;48.900;9.188;2023-05-07T08:14:01;98415.00;;;19.00
35582;BMP180;21687;48.900;9.188;2023-05-07T08:16:28;98420.00;;;19.00
35582;BMP180;21687;48.900;9.188;2023-05-07T08:18:54;98410.00;;;19.10
35582;BMP180;21687;48.900;9.188;2023-05-07T08:21:20;98407.00;;;19.30
35582;BMP180;21687;48.900;9.188;2023-05-07T08:23:47;98411.00;;;19.20
35582;BMP180;21687;48.900;9.188;2023-05-07T08:26:13;98406.00;;;19.20
35582;BMP180;21687;48.900;9.188;2023-05-07T08:28:39;98414.00;;;19.00
35582;BMP180;21687;48.900;9.188;2023-05-07T08:31:06;98408.00;;;19.30
35582;BMP180;21687;48.900;9.188;2023-05-07T08:33:32;98414.00;;;19.60
35582;BMP180;21687;48.900;9.188;2023-05-07T08:35:58;98413.00;;;19.70
35582;BMP180;21687;48.900;9.188;2023-05-07T08:38:24;98401.00;;;19.90
35582;BMP180;21687;48.900;9.188;2023-05-07T08:40:51;98401.00;;;20.20
35582;BMP180;21687;48.900;9.188;2023-05-07T08:43:19;98411.00;;;20.40
35582;BMP180;21687;48.900;9.188;2023-05-07T08:45:46;98410.00;;;20.60
35582;BMP180;21687;48.900;9.188;2023-05-07T08:48:16;98415.00;;;21.10
35582;BMP180;21687;48.900;9.188;2023-05-07T08:50:42;98411.00;;;21.50
35582;BMP180;21687;48.900;9.188;2023-05-07T08:53:09;98414.00;;;22.50
35582;BMP180;21687;48.900;9.188;2023-05-07T08:55:36;98409.00;;;22.70
35582;BMP180;21687;48.900;9.188;2023-05-07T08:58:02;98422.00;;;22.50
35582;BMP180;21687;48.900;9.188;2023-05-07T09:00:28;98415.00;;;23.00
35582;BMP180;21687;48.900;9.188;2023-05-07T09:02:54;98418.00;;;23.20
35582;BMP180;21687;48.900;9.188;2023-05-07T09:05:21;98419.00;;;23.40
35582;BMP180;21687;48.900;9.188;2023-05-07T09:07:47;98413.00;;;24.00
35582;BMP180;21687;48.900;9.188;2023-05-07T09:10:14;98413.00;;;24.30
35582;BMP180;21687;48.900;9.188;2023-05-07T09:12:40;98420.00;;;24.20
35582;BMP180;21687;48.900;9.188;2023-05-07T09:15:07;98412.00;;;24.10
35582;BMP180;21687;48.900;9.188;2023-05-07T09:17:34;98409.00;;;24.00
35582;BMP180;21687;48.900;9.188;2023-05-07T09:20:04;98415.00;;;23.50
35582;BMP180;21687;48.900;9.188;2023-05-07T09:22:37;98414.00;;;23.50
35582;BMP180;21687;48.900;9.188;2023-05-07T09:25:05;98406.00;;;23.80
35582;BMP180;21687;48.900;9.188;2023-05-07T09:27:32;98407.00;;;24.10
35582;BMP180;21687;48.900;9.188;2023-05-07T09:29:58;98400.00;;;24.10
35582;BMP180;21687;48.900;9.188;2023-05-07T09:32:25;98403.00;;;24.70
35582;BMP180;21687;48.900;9.188;2023-05-07T09:34:53;98406.00;;;24.70
35582;BMP180;21687;48.900;9.188;2023-05-07T09:37:20;98396.00;;;24.40
35582;BMP180;21687;48.900;9.188;2023-05-07T09:39:48;98391.00;;;24.20
35582;BMP180;21687;48.900;9.188;2023-05-07T09:42:15;98401.00;;;24.20
35582;BMP180;21687;48.900;9.188;2023-05-07T09:44:43;98398.00;;;24.00
35582;BMP180;21687;48.900;9.188;2023-05-07T09:47:09;98397.00;;;24.40
35582;BMP180;21687;48.900;9.188;2023-05-07T09:49:37;98398.00;;;24.80
35582;BMP180;21687;48.900;9.188;2023-05-07T09:52:06;98397.00;;;23.90
35582;BMP180;21687;48.900;9.188;2023-05-07T09:54:35;98393.00;;;24.30
35582;BMP180;21687;48.900;9.188;2023-05-07T09:57:05;98389.00;;;24.20
35582;BMP180;21687;48.900;9.188;2023-05-07T09:59:32;98397.00;;;24.50
35582;BMP180;21687;48.900;9.188;2023-05-07T10:02:02;98391.00;;;24.20
35582;BMP180;21687;48.900;9.188;2023-05-07T10:04:29;98394.00;;;24.80
35582;BMP180;21687;48.900;9.188;2023-05-07T10:06:57;98397.00;;;25.30
35582;BMP180;21687;48.900;9.188;2023-05-07T10:09:25;98390.00;;;25.00
35582;BMP180;21687;48.900;9.188;2023-05-07T10:11:51;98394.00;;;25.20
35582;BMP180;21687;48.900;9.188;2023-05-07T10:14:20;98382.00;;;24.70
35582;BMP180;21687;48.900;9.188;2023-05-07T10:16:48;98375.00;;;25.20
35582;BMP180;21687;48.900;9.188;2023-05-07T10:19:15;98379.00;;;24.90
35582;BMP180;21687;48.900;9.188;2023-05-07T10:21:54;98371.00;;;25.00
35582;BMP180;21687;48.900;9.188;2023-05-07T10:24:33;98371.00;;;25.00
35582;BMP180;21687;48.900;9.188;2023-05-07T10:27:12;98372.00;;;24.50
35582;BMP180;21687;48.900;9.188;2023-05-07T10:32:37;98367.00;;;24.40
35582;BMP180;21687;48.900;9.188;2023-05-07T10:35:10;98371.00;;;24.60
35582;BMP180;21687;48.900;9.188;2023-05-07T10:37:37;98365.00;;;25.00
35582;BMP180;21687;48.900;9.188;2023-05-07T10:40:04;98369.00;;;24.90
35582;BMP180;21687;48.900;9.188;2023-05-07T10:42:33;98366.00;;;24.50
35582;BMP180;21687;48.900;9.188;2023-05-07T10:45:15;98369.00;;;24.10
35582;BMP180;21687;48.900;9.188;2023-05-07T10:50:30;98365.00;;;23.80
35582;BMP180;21687;48.900;9.188;2023-05-07T10:55:50;98365.00;;;24.10
35582;BMP180;21687;48.900;9.188;2023-05-07T10:58:25;98360.00;;;24.20
35582;BMP180;21687;48.900;9.188;2023-05-07T11:00:57;98361.00;;;24.50
35582;BMP180;21687;48.900;9.188;2023-05-07T11:03:24;98363.00;;;24.40
35582;BMP180;21687;48.900;9.188;2023-05-07T11:06:13;98359.00;;;24.00
35582;BMP180;21687;48.900;9.188;2023-05-07T11:08:56;98359.00;;;24.50
35582;BMP180;21687;48.900;9.188;2023-05-07T11:11:44;98359.00;;;24.60
35582;BMP180;21687;48.900;9.188;2023-05-07T11:14:13;98360.00;;;24.50
35582;BMP180;21687;48.900;9.188;2023-05-07T11:16:41;98355.00;;;24.20
35582;BMP180;21687;48.900;9.188;2023-05-07T11:19:07;98355.00;;;24.20
35582;BMP180;21687;48.900;9.188;2023-05-07T11:21:41;98356.00;;;23.80
35582;BMP180;21687;48.900;9.188;2023-05-07T11:24:11;98350.00;;;23.90
35582;BMP180;21687;48.900;9.188;2023-05-07T11:26:48;98353.00;;;24.00
35582;BMP180;21687;48.900;9.188;2023-05-07T11:29:17;98354.00;;;23.80
35582;BMP180;21687;48.900;9.188;2023-05-07T11:31:47;98349.00;;;23.80
35582;BMP180;21687;48.900;9.188;2023-05-07T11:34:20;98354.00;;;23.90
35582;BMP180;21687;48.900;9.188;2023-05-07T11:36:48;98346.00;;;23.90
35582;BMP180;21687;48.900;9.188;2023-05-07T11:39:27;98344.00;;;23.90
35582;BMP180;21687;48.900;9.188;2023-05-07T11:41:53;98331.00;;;24.00
35582;BMP180;21687;48.900;9.188;2023-05-07T11:44:19;98337.00;;;24.20
35582;BMP180;21687;48.900;9.188;2023-05-07T11:46:46;98338.00;;;24.20
35582;BMP180;21687;48.900;9.188;2023-05-07T11:49:12;98332.00;;;24.10
35582;BMP180;21687;48.900;9.188;2023-05-07T11:51:39;98338.00;;;24.00
35582;BMP180;21687;48.900;9.188;2023-05-07T11:54:07;98337.00;;;23.80
35582;BMP180;21687;48.900;9.188;2023-05-07T11:56:35;98339.00;;;23.70
35582;BMP180;21687;48.900;9.188;2023-05-07T11:59:02;98343.00;;;23.70
35582;BMP180;21687;48.900;9.188;2023-05-07T12:01:28;98348.00;;;23.60
35582;BMP180;21687;48.900;9.188;2023-05-07T12:03:55;98346.00;;;23.70
35582;BMP180;21687;48.900;9.188;2023-05-07T12:06:21;98357.00;;;23.80
35582;BMP180;21687;48.900;9.188;2023-05-07T12:08:47;98361.00;;;23.80
35582;BMP180;21687;48.900;9.188;2023-05-07T12:11:24;98358.00;;;24.10
35582;BMP180;21687;48.900;9.188;2023-05-07T12:13:51;98355.00;;;24.40
35582;BMP180;21687;48.900;9.188;2023-05-07T12:16:18;98354.00;;;24.60
35582;BMP180;21687;48.900;9.188;2023-05-07T12:18:45;98350.00;;;24.60
35582;BMP180;21687;48.900;9.188;2023-05-07T12:21:12;98349.00;;;24.70
35582;BMP180;21687;48.900;9.188;2023-05-07T12:23:39;98351.00;;;24.80
35582;BMP180;21687;48.900;9.188;2023-05-07T12:26:05;98336.00;;;24.70
35582;BMP180;21687;48.900;9.188;2023-05-07T12:28:37;98333.00;;;24.00
35582;BMP180;21687;48.900;9.188;2023-05-07T12:31:07;98342.00;;;24.00
35582;BMP180;21687;48.900;9.188;2023-05-07T12:33:35;98342.00;;;23.90
35582;BMP180;21687;48.900;9.188;2023-05-07T12:36:05;98348.00;;;23.70
35582;BMP180;21687;48.900;9.188;2023-05-07T12:38:38;98344.00;;;23.80
35582;BMP180;21687;48.900;9.188;2023-05-07T12:41:07;98344.00;;;23.80
35582;BMP180;21687;48.900;9.188;2023-05-07T12:43:34;98351.00;;;23.80
35582;BMP180;21687;48.900;9.188;2023-05-07T12:46:06;98351.00;;;24.00
35582;BMP180;21687;48.900;9.188;2023-05-07T12:48:32;98354.00;;;23.90
35582;BMP180;21687;48.900;9.188;2023-05-07T12:51:00;98356.00;;;24.00
35582;BMP180;21687;48.900;9.188;2023-05-07T12:53:29;98363.00;;;24.20
35582;BMP180;21687;48.900;9.188;2023-05-07T12:55:57;98368.00;;;24.20
35582;BMP180;21687;48.900;9.188;2023-05-07T12:58:30;98363.00;;;24.30
35582;BMP180;21687;48.900;9.188;2023-05-07T13:00:59;98370.00;;;24.20
35582;BMP180;21687;48.900;9.188;2023-05-07T13:03:31;98378.00;;;24.20
35582;BMP180;21687;48.900;9.188;2023-05-07T13:06:00;98375.00;;;23.80
35582;BMP180;21687;48.900;9.188;2023-05-07T13:10:54;98380.00;;;23.00
35582;BMP180;21687;48.900;9.188;2023-05-07T13:13:21;98382.00;;;22.40
35582;BMP180;21687;48.900;9.188;2023-05-07T13:15:47;98391.00;;;22.20
35582;BMP180;21687;48.900;9.188;2023-05-07T13:18:14;98394.00;;;21.70
35582;BMP180;21687;48.900;9.188;2023-05-07T13:20:40;98394.00;;;21.80
35582;BMP180;21687;48.900;9.188;2023-05-07T13:23:06;98393.00;;;21.50
35582;BMP180;21687;48.900;9.188;2023-05-07T13:25:33;98395.00;;;21.10
35582;BMP180;21687;48.900;9.188;2023-05-07T13:27:59;98399.00;;;20.90
35582;BMP180;21687;48.900;9.188;2023-05-07T13:30:26;98389.00;;;20.80
35582;BMP180;21687;48.900;9.188;2023-05-07T13:32:54;98390.00;;;20.80
35582;BMP180;21687;48.900;9.188;2023-05-07T13:35:21;98380.00;;;20.60
35582;BMP180;21687;48.900;9.188;2023-05-07T13:37:47;98391.00;;;20.60
35582;BMP180;21687;48.900;9.188;2023-05-07T13:40:18;98393.00;;;20.20
35582;BMP180;21687;48.900;9.188;2023-05-07T13:42:45;98387.00;;;19.80
35582;BMP180;21687;48.900;9.188;2023-05-07T13:45:11;98392.00;;;19.60
35582;BMP180;21687;48.900;9.188;2023-05-07T13:47:41;98385.00;;;19.30
35582;BMP180;21687;48.900;9.188;2023-05-07T13:50:08;98379.00;;;19.00
35582;BMP180;21687;48.900;9.188;2023-05-07T13:52:35;98385.00;;;18.90
35582;BMP180;21687;48.900;9.188;2023-05-07T13:55:01;98373.00;;;18.70
35582;BMP180;21687;48.900;9.188;2023-05-07T13:57:27;98391.00;;;18.50
35582;BMP180;21687;48.900;9.188;2023-05-07T13:59:54;98385.00;;;18.50
35582;BMP180;21687;48.900;9.188;2023-05-07T14:02:20;98384.00;;;18.40
35582;BMP180;21687;48.900;9.188;2023-05-07T14:04:46;98384.00;;;18.50
35582;BMP180;21687;48.900;9.188;2023-05-07T14:07:13;98388.00;;;18.50
35582;BMP180;21687;48.900;9.188;2023-05-07T14:09:39;98385.00;;;18.50
35582;BMP180;21687;48.900;9.188;2023-05-07T14:12:05;98390.00;;;18.60
35582;BMP180;21687;48.900;9.188;2023-05-07T14:14:32;98397.00;;;18.70
35582;BMP180;21687;48.900;9.188;2023-05-07T14:16:58;98396.00;;;18.70
35582;BMP180;21687;48.900;9.188;2023-05-07T14:19:24;98400.00;;;18.70
35582;BMP180;21687;48.900;9.188;2023-05-07T14:21:51;98418.00;;;18.70